createdAt,value
2023-05-14T00:02:17.609Z,101313.84
2023-05-14T00:07:19.173Z,101301.34
2023-05-14T00:12:20.537Z,101301.59
2023-05-14T00:17:22.124Z,101294.63
2023-05-14T00:22:23.529Z,101291.81
2023-05-14T00:27:24.879Z,101287.28
2023-05-14T00:32:26.413Z,101279.25
2023-05-14T00:37:27.783Z,101284.91
2023-05-14T00:42:29.209Z,101277.03
2023-05-14T00:47:30.886Z,101275.56
2023-05-14T00:52:32.509Z,101291.88
2023-05-14T00:57:34.712Z,101284.97
2023-05-14T01:02:36.373Z,101292.25
2023-05-14T01:07:37.788Z,101279.63
2023-05-14T01:12:52.257Z,101279.53
2023-05-14T01:17:55.344Z,101274.16
2023-05-14T01:22:56.705Z,101261.88
2023-05-14T01:28:17.888Z,101256.16
2023-05-14T01:33:21.603Z,101249.75
2023-05-14T01:38:23.699Z,101266.28
2023-05-14T01:43:25.943Z,101254.91
2023-05-14T01:48:29.783Z,101253.28
2023-05-14T01:53:31.136Z,101257.25
2023-05-14T01:58:32.515Z,101255.63
2023-05-14T02:03:33.898Z,101247.16
2023-05-14T02:08:36.027Z,101244.47
2023-05-14T02:13:38.059Z,101230.28
2023-05-14T02:18:39.569Z,101238.72
2023-05-14T02:23:42.232Z,101239.81
2023-05-14T02:28:44.350Z,101250.47
2023-05-14T02:33:47.644Z,101236.13
2023-05-14T02:38:48.979Z,101237.09
2023-05-14T02:43:50.378Z,101230.38
2023-05-14T02:48:51.865Z,101231.63
2023-05-14T02:53:53.366Z,101233.66
2023-05-14T02:58:54.802Z,101232.34
2023-05-14T03:03:56.749Z,101225.78
2023-05-14T03:08:58.173Z,101232.19
2023-05-14T03:13:59.646Z,101231.28
2023-05-14T03:19:01.065Z,101235.78
2023-05-14T03:24:02.485Z,101225.69
2023-05-14T03:29:03.972Z,101227.81
2023-05-14T03:34:05.615Z,101229.59
2023-05-14T03:39:07.044Z,101226.59
2023-05-14T03:44:10.259Z,101225.38
2023-05-14T03:49:11.800Z,101218.84
2023-05-14T03:54:13.483Z,101224.00
2023-05-14T03:59:14.901Z,101220.00
2023-05-14T04:04:16.401Z,101228.38
2023-05-14T04:09:17.843Z,101219.44
2023-05-14T04:14:19.228Z,101215.75
2023-05-14T04:19:20.736Z,101204.38
2023-05-14T04:24:22.158Z,101214.09
2023-05-14T04:29:23.537Z,101226.91
2023-05-14T04:34:24.905Z,101224.38
2023-05-14T04:39:26.291Z,101227.28
2023-05-14T04:44:27.676Z,101218.66
2023-05-14T04:49:29.185Z,101215.47
2023-05-14T04:54:30.863Z,101216.66
2023-05-14T04:59:32.430Z,101223.75
2023-05-14T05:04:33.787Z,101213.53
2023-05-14T05:09:35.256Z,101219.38
2023-05-14T05:14:36.614Z,101222.88
2023-05-14T05:19:43.777Z,101220.25
2023-05-14T05:24:46.715Z,101221.75
2023-05-14T05:29:48.936Z,101211.59
2023-05-14T05:34:51.896Z,101231.41
2023-05-14T05:39:53.920Z,101225.88
2023-05-14T05:44:55.404Z,101217.84
2023-05-14T05:49:56.855Z,101204.81
2023-05-14T05:54:58.343Z,101219.13
2023-05-14T05:59:59.768Z,101211.25
2023-05-14T06:05:01.227Z,101210.13
2023-05-14T06:10:03.191Z,101216.69
2023-05-14T06:15:04.749Z,101217.28
2023-05-14T06:20:07.820Z,101228.22
2023-05-14T06:25:09.529Z,101231.84
2023-05-14T06:30:11.259Z,101229.25
2023-05-14T06:35:12.652Z,101233.25
2023-05-14T06:40:15.697Z,101226.22
2023-05-14T06:45:17.221Z,101231.34
2023-05-14T06:50:18.620Z,101218.50
2023-05-14T06:55:20.200Z,101219.47
2023-05-14T07:00:22.050Z,101221.72
2023-05-14T07:05:24.174Z,101226.56
2023-05-14T07:10:25.830Z,101216.47
2023-05-14T07:15:27.722Z,101224.63
2023-05-14T07:20:29.139Z,101217.41
2023-05-14T07:25:30.568Z,101223.72
2023-05-14T07:30:31.965Z,101216.75
2023-05-14T07:35:33.360Z,101226.41
2023-05-14T07:40:34.810Z,101223.25
2023-05-14T07:45:36.865Z,101220.91
2023-05-14T07:50:38.327Z,101217.56
2023-05-14T07:55:40.024Z,101224.16
2023-05-14T08:00:41.505Z,101224.06
2023-05-14T08:05:42.880Z,101221.06
2023-05-14T08:10:44.417Z,101225.84
2023-05-14T08:15:45.903Z,101225.06
2023-05-14T08:20:47.360Z,101232.41
2023-05-14T08:25:48.791Z,101230.44
2023-05-14T08:30:50.376Z,101215.22
2023-05-14T08:35:53.073Z,101217.06
2023-05-14T08:40:58.581Z,101221.06
2023-05-14T08:46:01.936Z,101213.59
2023-05-14T08:51:03.430Z,101213.66
2023-05-14T08:56:05.061Z,101208.09
2023-05-14T09:01:06.641Z,101206.66
2023-05-14T09:06:08.833Z,101202.38
2023-05-14T09:11:10.260Z,101206.09
2023-05-14T09:16:11.800Z,101198.13
2023-05-14T09:21:14.048Z,101202.09
2023-05-14T09:26:16.861Z,101200.16
2023-05-14T09:31:18.259Z,101192.91
2023-05-14T09:36:19.748Z,101193.78
2023-05-14T09:41:22.909Z,101197.69
2023-05-14T09:46:27.221Z,101181.94
2023-05-14T09:51:31.448Z,101170.38
2023-05-14T09:56:33.453Z,101173.69
2023-05-14T10:01:35.132Z,101170.06
2023-05-14T10:06:37.586Z,101171.03
2023-05-14T10:11:40.739Z,101170.75
2023-05-14T10:16:46.528Z,101163.91
2023-05-14T10:21:50.383Z,101154.47
2023-05-14T10:26:52.340Z,101162.28
2023-05-14T10:31:54.548Z,101149.81
2023-05-14T10:36:58.852Z,101141.44
2023-05-14T10:42:00.342Z,101133.25
2023-05-14T10:47:02.426Z,101135.56
2023-05-14T10:52:03.903Z,101136.91
2023-05-14T10:57:11.047Z,101119.31
2023-05-14T11:02:19.468Z,101111.63
2023-05-14T11:07:23.905Z,101111.44
2023-05-14T11:12:26.119Z,101092.34
2023-05-14T11:17:28.545Z,101103.09
2023-05-14T11:22:30.044Z,101092.06
2023-05-14T11:27:32.209Z,101090.13
2023-05-14T11:32:33.865Z,101091.16
2023-05-14T11:37:35.585Z,101089.50
2023-05-14T11:42:37.214Z,101082.38
2023-05-14T11:47:38.596Z,101080.84
2023-05-14T11:52:40.583Z,101076.19
2023-05-14T11:57:42.145Z,101076.88
2023-05-14T12:02:43.643Z,101071.59
2023-05-14T12:07:45.630Z,101077.38
2023-05-14T12:12:47.628Z,101084.25
2023-05-14T12:17:50.447Z,101072.56
2023-05-14T12:22:51.932Z,101055.34
2023-05-14T12:27:53.278Z,101060.09
2023-05-14T12:32:54.766Z,101051.53
2023-05-14T12:37:56.177Z,101043.97
2023-05-14T12:42:57.685Z,101044.28
2023-05-14T12:47:59.147Z,101026.47
2023-05-14T12:53:00.525Z,101027.44
2023-05-14T12:58:01.932Z,101002.81
2023-05-14T13:03:03.316Z,101015.72
2023-05-14T13:08:04.745Z,101011.91
2023-05-14T13:13:06.107Z,100994.38
2023-05-14T13:18:07.548Z,100989.81
2023-05-14T13:23:08.923Z,100995.66
2023-05-14T13:28:10.377Z,100985.88
2023-05-14T13:33:11.766Z,100981.94
2023-05-14T13:38:13.185Z,100987.44
2023-05-14T13:43:16.776Z,100982.19
2023-05-14T13:48:18.145Z,100968.28
2023-05-14T13:53:20.286Z,100972.56
2023-05-14T13:58:22.253Z,100963.22
2023-05-14T14:03:23.735Z,100963.59
2023-05-14T14:08:25.189Z,100958.28
2023-05-14T14:13:27.676Z,100942.63
2023-05-14T14:18:29.095Z,100944.91
2023-05-14T14:23:30.539Z,100930.00
2023-05-14T14:28:32.350Z,100938.09
2023-05-14T14:33:33.770Z,100933.88
2023-05-14T14:38:35.204Z,100934.28
2023-05-14T14:43:37.667Z,100927.19
2023-05-14T14:48:39.053Z,100917.03
2023-05-14T14:53:40.564Z,100914.09
2023-05-14T14:58:42.235Z,100913.66
2023-05-14T15:03:45.492Z,100918.03
2023-05-14T15:08:47.097Z,100920.50
2023-05-14T15:13:48.725Z,100926.63
2023-05-14T15:18:50.196Z,100924.13
2023-05-14T15:23:51.585Z,100921.72
2023-05-14T15:28:53.003Z,100911.09
2023-05-14T15:33:55.962Z,100913.28
2023-05-14T15:38:57.376Z,100913.50
2023-05-14T15:43:59.068Z,100906.91
2023-05-14T15:49:00.510Z,100905.97
2023-05-14T15:54:01.942Z,100899.66
2023-05-14T15:59:03.307Z,100897.06
2023-05-14T16:04:04.766Z,100891.44
2023-05-14T16:09:06.259Z,100898.41
2023-05-14T16:14:07.600Z,100902.69
2023-05-14T16:19:09.139Z,100902.63
2023-05-14T16:24:12.485Z,100900.72
2023-05-14T16:29:13.895Z,100900.78
2023-05-14T16:34:15.321Z,100897.28
2023-05-14T16:39:17.348Z,100887.63
2023-05-14T16:44:18.693Z,100890.34
2023-05-14T16:49:22.288Z,100891.69
2023-05-14T16:54:23.773Z,100886.25
2023-05-14T16:59:25.396Z,100891.84
2023-05-14T17:04:26.838Z,100895.09
2023-05-14T17:09:28.575Z,100889.00
2023-05-14T17:14:29.974Z,100892.47
2023-05-14T17:19:31.309Z,100894.19
2023-05-14T17:24:32.718Z,100900.22
2023-05-14T17:29:34.273Z,100891.53
2023-05-14T17:34:35.672Z,100899.44
2023-05-14T17:39:37.278Z,100895.09
2023-05-14T17:44:38.633Z,100892.50
2023-05-14T17:49:39.971Z,100904.00
2023-05-14T17:54:41.351Z,100903.56
2023-05-14T17:59:42.734Z,100908.41
2023-05-14T18:04:44.151Z,100902.28
2023-05-14T18:09:45.585Z,100905.19
2023-05-14T18:14:47.117Z,100906.41
2023-05-14T18:19:48.553Z,100910.47
2023-05-14T18:24:49.919Z,100906.41
2023-05-14T18:29:51.684Z,100912.75
2023-05-14T18:34:53.015Z,100909.91
2023-05-14T18:39:54.817Z,100910.47
2023-05-14T18:44:56.248Z,100914.31
2023-05-14T18:50:00.225Z,100925.72
2023-05-14T18:55:01.730Z,100918.28
2023-05-14T19:00:04.606Z,100917.81
2023-05-14T19:05:06.254Z,100909.31
2023-05-14T19:10:08.033Z,100916.13
2023-05-14T19:15:10.026Z,100924.31
2023-05-14T19:20:11.773Z,100916.03
2023-05-14T19:25:13.288Z,100929.31
2023-05-14T19:30:14.871Z,100928.91
2023-05-14T19:35:16.417Z,100932.66
2023-05-14T19:40:17.797Z,100937.41
2023-05-14T19:45:19.199Z,100932.34
2023-05-14T19:50:20.608Z,100930.88
2023-05-14T19:55:22.042Z,100933.91
2023-05-14T20:00:23.957Z,100937.84
2023-05-14T20:05:26.154Z,100933.84
2023-05-14T20:10:28.062Z,100936.69
2023-05-14T20:15:29.843Z,100947.25
2023-05-14T20:20:33.153Z,100943.47
2023-05-14T20:25:35.006Z,100941.66
2023-05-14T20:30:36.496Z,100931.81
2023-05-14T20:35:37.981Z,100930.53
2023-05-14T20:40:39.760Z,100930.78
2023-05-14T20:45:41.578Z,100930.47
2023-05-14T20:50:43.225Z,100932.38
2023-05-14T20:55:47.291Z,100938.81
2023-05-14T21:00:48.659Z,100936.66
2023-05-14T21:05:50.042Z,100927.31
2023-05-14T21:10:51.394Z,100927.16
2023-05-14T21:15:52.803Z,100931.50
2023-05-14T21:20:59.654Z,100932.47
2023-05-14T21:26:02.195Z,100927.69
2023-05-14T21:31:03.585Z,100923.28
2023-05-14T21:36:05.187Z,100919.84
2023-05-14T21:41:06.559Z,100923.72
2023-05-14T21:46:08.492Z,100921.69
2023-05-14T21:51:10.035Z,100919.94
2023-05-14T21:56:11.423Z,100925.81
2023-05-14T22:01:12.870Z,100910.63
2023-05-14T22:06:14.329Z,100914.63
2023-05-14T22:11:15.769Z,100906.16
2023-05-14T22:16:17.245Z,100918.91
2023-05-14T22:21:18.821Z,100913.97
2023-05-14T22:26:21.480Z,100911.63
2023-05-14T22:31:22.892Z,100904.66
2023-05-14T22:36:24.344Z,100898.66
2023-05-14T22:41:26.615Z,100895.50
2023-05-14T22:46:28.094Z,100892.72
2023-05-14T22:51:29.498Z,100879.22
2023-05-14T22:56:30.920Z,100883.31
2023-05-14T23:01:32.410Z,100885.84
2023-05-14T23:06:33.818Z,100888.06
2023-05-14T23:11:35.288Z,100880.16
2023-05-14T23:16:36.689Z,100882.69
2023-05-14T23:21:38.088Z,100870.22
2023-05-14T23:26:39.534Z,100867.97
2023-05-14T23:31:41.245Z,100870.50
2023-05-14T23:36:42.706Z,100874.28
2023-05-14T23:41:44.143Z,100863.69
2023-05-14T23:46:45.685Z,100867.09
2023-05-14T23:51:47.069Z,100857.44
2023-05-14T23:56:48.645Z,100858.38
